createdAt,value
2023-05-20T00:01:10.194Z,17.10
2023-05-20T00:03:43.062Z,17.00
2023-05-20T00:06:16.016Z,17.10
2023-05-20T00:08:49.131Z,17.10
2023-05-20T00:11:22.148Z,17.10
2023-05-20T00:13:54.952Z,17.10
2023-05-20T00:16:28.197Z,17.10
2023-05-20T00:19:02.002Z,17.20
2023-05-20T00:21:35.834Z,17.10
2023-05-20T00:24:08.895Z,17.10
2023-05-20T00:26:41.923Z,17.10
2023-05-20T00:29:14.764Z,17.10
2023-05-20T00:31:47.637Z,17.20
2023-05-20T00:34:20.484Z,17.20
2023-05-20T00:36:53.846Z,17.10
2023-05-20T00:39:26.718Z,17.20
2023-05-20T00:42:00.860Z,17.20
2023-05-20T00:44:37.942Z,17.20
2023-05-20T00:47:11.113Z,17.20
2023-05-20T00:49:44.027Z,17.20
2023-05-20T00:52:17.564Z,17.20
2023-05-20T00:54:50.806Z,17.20
2023-05-20T00:57:23.991Z,17.20
2023-05-20T00:59:57.078Z,17.10
2023-05-20T01:02:30.290Z,17.20
2023-05-20T01:05:03.710Z,17.20
2023-05-20T01:07:37.555Z,17.20
2023-05-20T01:10:11.466Z,17.20
2023-05-20T01:12:51.953Z,17.20
2023-05-20T01:15:26.671Z,17.20
2023-05-20T01:18:02.868Z,17.10
2023-05-20T01:20:36.758Z,17.10
2023-05-20T01:23:09.576Z,17.20
2023-05-20T01:25:42.693Z,17.20
2023-05-20T01:28:17.460Z,17.20
2023-05-20T01:30:51.982Z,17.20
2023-05-20T01:33:26.732Z,17.20
2023-05-20T01:36:01.287Z,17.30
2023-05-20T01:38:35.425Z,17.30
2023-05-20T01:41:09.815Z,17.30
2023-05-20T01:43:43.432Z,17.30
2023-05-20T01:46:16.460Z,17.30
2023-05-20T01:48:49.633Z,17.20
2023-05-20T01:51:22.585Z,17.20
2023-05-20T01:53:55.602Z,17.20
2023-05-20T01:56:28.669Z,17.20
2023-05-20T01:59:01.936Z,17.20
2023-05-20T02:01:35.174Z,17.20
2023-05-20T02:04:08.234Z,17.10
2023-05-20T02:06:41.177Z,17.00
2023-05-20T02:09:14.127Z,16.90
2023-05-20T02:11:47.032Z,16.80
2023-05-20T02:14:19.984Z,16.80
2023-05-20T02:16:52.769Z,16.80
2023-05-20T02:19:26.164Z,16.80
2023-05-20T02:21:59.798Z,16.80
2023-05-20T02:24:32.535Z,16.70
2023-05-20T02:27:06.722Z,16.70
2023-05-20T02:29:39.576Z,16.60
2023-05-20T02:32:13.198Z,16.60
2023-05-20T02:34:46.942Z,16.60
2023-05-20T02:37:21.131Z,16.60
2023-05-20T02:39:54.213Z,16.60
2023-05-20T02:42:27.383Z,16.50
2023-05-20T02:45:00.810Z,16.50
2023-05-20T02:47:34.134Z,16.50
2023-05-20T02:50:07.393Z,16.50
2023-05-20T02:52:41.713Z,16.50
2023-05-20T02:55:15.046Z,16.50
2023-05-20T02:57:47.961Z,16.50
2023-05-20T03:00:20.913Z,16.50
2023-05-20T03:02:53.859Z,16.50
2023-05-20T03:05:26.927Z,16.40
2023-05-20T03:07:59.895Z,16.40
2023-05-20T03:10:32.804Z,16.40
2023-05-20T03:13:05.788Z,16.40
2023-05-20T03:15:38.993Z,16.40
2023-05-20T03:18:14.711Z,16.30
2023-05-20T03:20:48.181Z,16.30
2023-05-20T03:23:21.752Z,16.20
2023-05-20T03:25:55.024Z,16.20
2023-05-20T03:28:27.891Z,16.20
2023-05-20T03:31:00.819Z,16.20
2023-05-20T03:33:35.691Z,16.20
2023-05-20T03:36:08.779Z,16.20
2023-05-20T03:38:41.636Z,16.10
2023-05-20T03:41:14.576Z,16.10
2023-05-20T03:43:49.808Z,16.10
2023-05-20T03:46:22.679Z,16.00
2023-05-20T03:48:55.522Z,16.00
2023-05-20T03:51:28.969Z,16.00
2023-05-20T03:54:02.228Z,16.00
2023-05-20T03:56:35.793Z,16.00
2023-05-20T03:59:08.714Z,16.00
2023-05-20T04:01:41.920Z,16.00
2023-05-20T04:04:15.233Z,16.00
2023-05-20T04:06:48.284Z,16.00
2023-05-20T04:09:21.691Z,16.00
2023-05-20T04:11:54.781Z,16.00
2023-05-20T04:14:27.865Z,15.90
2023-05-20T04:17:01.139Z,15.90
2023-05-20T04:19:34.038Z,15.90
2023-05-20T04:22:07.334Z,15.90
2023-05-20T04:24:40.715Z,15.90
2023-05-20T04:27:13.629Z,15.90
2023-05-20T04:29:49.853Z,15.90
2023-05-20T04:32:23.266Z,15.90
2023-05-20T04:34:57.991Z,15.80
2023-05-20T04:37:31.138Z,15.80
2023-05-20T04:40:05.141Z,15.80
2023-05-20T04:42:38.124Z,15.80
2023-05-20T04:45:11.694Z,15.80
2023-05-20T04:47:46.067Z,15.80
2023-05-20T04:50:19.162Z,15.80
2023-05-20T04:52:52.494Z,15.80
2023-05-20T04:55:26.670Z,15.80
2023-05-20T04:57:59.548Z,15.90
2023-05-20T05:00:32.420Z,15.80
2023-05-20T05:03:06.053Z,15.80
2023-05-20T05:05:42.568Z,15.80
2023-05-20T05:08:16.034Z,15.80
2023-05-20T05:10:50.286Z,15.70
2023-05-20T05:13:26.305Z,15.60
2023-05-20T05:16:05.910Z,15.60
2023-05-20T05:18:39.138Z,15.60
2023-05-20T05:21:12.192Z,15.60
2023-05-20T05:23:45.575Z,15.60
2023-05-20T05:26:18.795Z,15.60
2023-05-20T05:28:52.081Z,15.60
2023-05-20T05:31:25.522Z,15.60
2023-05-20T05:33:58.615Z,15.60
2023-05-20T05:36:31.687Z,15.60
2023-05-20T05:39:04.892Z,15.60
2023-05-20T05:41:37.999Z,15.60
2023-05-20T05:44:10.740Z,15.50
2023-05-20T05:46:44.116Z,15.60
2023-05-20T05:49:16.908Z,15.50
2023-05-20T05:51:49.861Z,15.50
2023-05-20T05:54:26.306Z,15.50
2023-05-20T05:56:59.734Z,15.50
2023-05-20T05:59:32.644Z,15.50
2023-05-20T06:02:05.768Z,15.50
2023-05-20T06:04:44.398Z,15.50
2023-05-20T06:07:29.410Z,15.40
2023-05-20T06:10:06.256Z,15.40
2023-05-20T06:12:40.223Z,15.40
2023-05-20T06:15:13.717Z,15.40
2023-05-20T06:17:46.836Z,15.30
2023-05-20T06:20:21.560Z,15.30
2023-05-20T06:22:54.572Z,15.30
2023-05-20T06:25:28.824Z,15.30
2023-05-20T06:28:01.563Z,15.30
2023-05-20T06:30:34.436Z,15.20
2023-05-20T06:33:08.016Z,15.20
2023-05-20T06:35:41.193Z,15.20
2023-05-20T06:38:14.290Z,15.30
2023-05-20T06:40:47.292Z,15.30
2023-05-20T06:43:20.609Z,15.30
2023-05-20T06:45:54.001Z,15.30
2023-05-20T06:48:27.550Z,15.30
2023-05-20T06:51:00.745Z,15.30
2023-05-20T06:53:34.083Z,15.30
2023-05-20T06:56:11.417Z,15.30
2023-05-20T06:58:44.498Z,15.30
2023-05-20T07:01:18.351Z,15.30
2023-05-20T07:03:51.861Z,15.30
2023-05-20T07:06:25.097Z,15.30
2023-05-20T07:08:58.125Z,15.30
2023-05-20T07:11:34.296Z,15.30
2023-05-20T07:14:07.316Z,15.30
2023-05-20T07:16:40.287Z,15.30
2023-05-20T07:19:13.627Z,15.30
2023-05-20T07:21:46.611Z,15.30
2023-05-20T07:24:20.551Z,15.30
2023-05-20T07:26:53.625Z,15.30
2023-05-20T07:29:26.802Z,15.30
2023-05-20T07:32:00.140Z,15.30
2023-05-20T07:34:33.377Z,15.30
2023-05-20T07:37:06.465Z,15.30
2023-05-20T07:39:39.304Z,15.30
2023-05-20T07:42:12.329Z,15.30
2023-05-20T07:44:45.544Z,15.30
2023-05-20T07:47:19.201Z,15.30
2023-05-20T07:50:15.814Z,15.30
2023-05-20T07:55:23.323Z,15.30
2023-05-20T07:57:56.350Z,15.30
2023-05-20T08:00:29.532Z,15.30
2023-05-20T08:03:03.337Z,15.30
2023-05-20T08:05:36.566Z,15.30
2023-05-20T08:08:09.545Z,15.30
2023-05-20T08:10:42.576Z,15.30
2023-05-20T08:13:19.948Z,15.30
2023-05-20T08:15:52.778Z,15.30
2023-05-20T08:18:25.902Z,15.30
2023-05-20T08:21:03.297Z,15.30
2023-05-20T08:23:38.065Z,15.30
2023-05-20T08:26:10.772Z,15.30
2023-05-20T08:28:44.648Z,15.30
2023-05-20T08:31:17.665Z,15.30
2023-05-20T08:33:50.979Z,15.40
2023-05-20T08:36:23.881Z,15.40
2023-05-20T08:38:59.919Z,15.30
2023-05-20T08:41:32.476Z,15.30
2023-05-20T08:44:06.364Z,15.30
2023-05-20T08:46:39.891Z,15.30
2023-05-20T08:49:12.893Z,15.30
2023-05-20T08:51:45.928Z,15.30
2023-05-20T08:54:20.069Z,15.20
2023-05-20T08:56:53.185Z,15.20
2023-05-20T08:59:26.772Z,15.20
2023-05-20T09:01:59.798Z,15.20
2023-05-20T09:04:32.975Z,15.20
2023-05-20T09:07:05.999Z,15.20
2023-05-20T09:09:43.564Z,15.20
2023-05-20T09:12:16.733Z,15.10
2023-05-20T09:14:49.922Z,15.10
2023-05-20T09:17:22.681Z,15.00
2023-05-20T09:19:56.877Z,15.00
2023-05-20T09:22:30.853Z,15.00
2023-05-20T09:25:03.885Z,15.00
2023-05-20T09:27:37.428Z,15.00
2023-05-20T09:30:11.703Z,14.90
2023-05-20T09:32:44.652Z,14.90
2023-05-20T09:35:21.518Z,14.90
2023-05-20T09:37:57.068Z,14.90
2023-05-20T09:40:31.494Z,14.90
2023-05-20T09:43:09.666Z,14.90
2023-05-20T09:45:42.950Z,14.90
2023-05-20T09:48:16.214Z,14.90
2023-05-20T09:50:49.179Z,14.90
2023-05-20T09:53:22.334Z,14.90
2023-05-20T09:55:55.994Z,14.90
2023-05-20T09:58:29.206Z,14.90
2023-05-20T10:01:04.412Z,14.90
2023-05-20T10:03:44.161Z,14.90
2023-05-20T10:06:18.767Z,14.90
2023-05-20T10:09:18.936Z,14.90
2023-05-20T10:11:56.573Z,14.80
2023-05-20T10:14:33.645Z,14.80
2023-05-20T10:17:19.706Z,14.80
2023-05-20T10:19:53.163Z,14.80
2023-05-20T10:22:33.736Z,14.80
2023-05-20T10:25:11.207Z,14.80
2023-05-20T10:27:57.312Z,14.80
2023-05-20T10:30:30.697Z,14.80
2023-05-20T10:33:07.305Z,14.80
2023-05-20T10:35:41.768Z,14.70
2023-05-20T10:38:15.675Z,14.80
2023-05-20T10:40:48.572Z,14.70
2023-05-20T10:43:24.015Z,14.70
2023-05-20T10:45:59.416Z,14.70
2023-05-20T10:48:36.844Z,14.80
2023-05-20T10:51:12.449Z,14.70
2023-05-20T10:53:46.994Z,14.80
2023-05-20T10:56:26.831Z,14.80
2023-05-20T10:58:59.684Z,14.80
2023-05-20T11:01:32.590Z,14.80
2023-05-20T11:04:06.227Z,14.80
2023-05-20T11:06:39.261Z,14.80
2023-05-20T11:09:12.301Z,14.80
2023-05-20T11:11:46.088Z,14.70
2023-05-20T11:14:20.340Z,14.70
2023-05-20T11:16:56.917Z,14.80
2023-05-20T11:19:33.782Z,14.80
2023-05-20T11:22:06.644Z,14.70
2023-05-20T11:24:39.460Z,14.70
2023-05-20T11:27:12.658Z,14.70
2023-05-20T11:29:46.254Z,14.70
2023-05-20T11:32:23.854Z,14.70
2023-05-20T11:34:57.037Z,14.70
2023-05-20T11:37:30.385Z,14.70
2023-05-20T11:40:13.319Z,14.60
2023-05-20T11:42:48.205Z,14.60
2023-05-20T11:45:21.093Z,14.60
2023-05-20T11:48:07.254Z,14.60
2023-05-20T11:50:44.965Z,14.60
2023-05-20T11:53:25.470Z,14.60
2023-05-20T11:55:59.878Z,14.60
2023-05-20T11:58:34.020Z,14.60
2023-05-20T12:01:20.878Z,14.50
2023-05-20T12:03:41.245Z,14.50
2023-05-20T12:06:16.549Z,14.50
2023-05-20T12:08:49.671Z,14.50
2023-05-20T12:11:28.128Z,14.50
2023-05-20T12:14:01.095Z,14.50
2023-05-20T12:16:35.241Z,14.50
2023-05-20T12:19:09.079Z,14.50
2023-05-20T12:21:42.138Z,14.50
2023-05-20T12:24:14.981Z,14.50
2023-05-20T12:26:47.992Z,14.50
2023-05-20T12:29:21.015Z,14.40
2023-05-20T12:31:54.494Z,14.40
2023-05-20T12:34:27.611Z,14.40
2023-05-20T12:37:00.530Z,14.40
2023-05-20T12:39:33.395Z,14.40
2023-05-20T12:42:06.285Z,14.40
2023-05-20T12:44:39.607Z,14.40
2023-05-20T12:47:12.755Z,14.30
2023-05-20T12:49:45.880Z,14.40
2023-05-20T12:52:22.413Z,14.40
2023-05-20T12:54:53.389Z,14.40
2023-05-20T12:57:26.455Z,14.40
2023-05-20T12:59:59.702Z,14.40
2023-05-20T13:02:33.000Z,14.40
2023-05-20T13:05:05.970Z,14.40
2023-05-20T13:07:38.898Z,14.30
2023-05-20T13:10:12.766Z,14.30
2023-05-20T13:12:48.162Z,14.30
2023-05-20T13:15:21.665Z,14.20
2023-05-20T13:17:54.690Z,14.20
2023-05-20T13:20:27.996Z,14.20
2023-05-20T13:23:04.123Z,14.20
2023-05-20T13:25:37.050Z,14.20
2023-05-20T13:28:10.442Z,14.20
2023-05-20T13:30:43.661Z,14.20
2023-05-20T13:33:17.172Z,14.20
2023-05-20T13:35:50.093Z,14.20
2023-05-20T13:38:22.998Z,14.20
2023-05-20T13:40:55.875Z,14.20
2023-05-20T13:43:30.196Z,14.20
2023-05-20T13:46:03.313Z,14.20
2023-05-20T13:48:36.263Z,14.20
2023-05-20T13:51:09.416Z,14.20
2023-05-20T13:53:42.449Z,14.20
2023-05-20T13:56:19.745Z,14.20
2023-05-20T13:58:52.685Z,14.20
2023-05-20T14:01:25.686Z,14.20
2023-05-20T14:03:58.791Z,14.20
2023-05-20T14:06:33.218Z,14.20
2023-05-20T14:09:05.937Z,14.20
2023-05-20T14:11:38.612Z,14.20
2023-05-20T14:14:11.663Z,14.20
2023-05-20T14:16:44.481Z,14.20
2023-05-20T14:19:17.681Z,14.20
2023-05-20T14:21:50.884Z,14.20
2023-05-20T14:24:24.072Z,14.20
2023-05-20T14:26:56.848Z,14.20
2023-05-20T14:29:29.699Z,14.10
2023-05-20T14:32:03.253Z,14.10
2023-05-20T14:34:36.707Z,14.10
2023-05-20T14:37:11.000Z,14.10
2023-05-20T14:39:54.853Z,14.10
2023-05-20T14:42:27.783Z,14.10
2023-05-20T14:45:00.757Z,14.10
2023-05-20T14:47:33.651Z,14.10
2023-05-20T14:50:06.498Z,14.10
2023-05-20T14:52:39.167Z,14.10
2023-05-20T14:55:12.338Z,14.10
2023-05-20T14:57:45.264Z,14.10
2023-05-20T15:00:19.268Z,14.10
2023-05-20T15:02:52.494Z,14.10
2023-05-20T15:05:25.269Z,14.10
2023-05-20T15:07:58.360Z,14.10
2023-05-20T15:10:54.687Z,14.10
2023-05-20T15:13:27.723Z,14.10
2023-05-20T15:16:00.887Z,14.00
2023-05-20T15:18:33.814Z,14.00
2023-05-20T15:21:06.881Z,14.10
2023-05-20T15:23:39.681Z,14.10
2023-05-20T15:26:13.996Z,14.10
2023-05-20T15:28:46.796Z,14.10
2023-05-20T15:31:19.630Z,14.10
2023-05-20T15:33:53.333Z,14.10
2023-05-20T15:36:27.307Z,14.10
2023-05-20T15:39:00.118Z,14.10
2023-05-20T15:41:34.225Z,14.10
2023-05-20T15:44:07.127Z,14.10
2023-05-20T15:46:40.116Z,14.10
2023-05-20T15:49:13.535Z,14.10
2023-05-20T15:51:52.185Z,14.10
2023-05-20T15:54:29.657Z,14.00
2023-05-20T15:57:02.515Z,14.00
2023-05-20T15:59:35.218Z,14.00
2023-05-20T16:02:08.176Z,14.00
2023-05-20T16:04:41.028Z,14.00
2023-05-20T16:07:13.912Z,14.00
2023-05-20T16:09:46.908Z,13.90
2023-05-20T16:12:20.216Z,13.90
2023-05-20T16:14:53.334Z,13.90
2023-05-20T16:17:28.839Z,13.90
2023-05-20T16:20:01.873Z,13.90
2023-05-20T16:22:37.345Z,13.90
2023-05-20T16:25:10.882Z,13.90
2023-05-20T16:28:04.030Z,13.90
2023-05-20T16:30:39.087Z,13.80
2023-05-20T16:33:12.513Z,13.80
2023-05-20T16:35:45.675Z,13.80
2023-05-20T16:38:18.836Z,13.80
2023-05-20T16:40:51.805Z,13.80
2023-05-20T16:43:24.766Z,13.80
2023-05-20T16:45:58.252Z,13.80
2023-05-20T16:48:31.110Z,13.80
2023-05-20T16:51:07.239Z,13.70
2023-05-20T16:53:40.071Z,13.70
2023-05-20T16:56:13.202Z,13.70
2023-05-20T16:58:46.567Z,13.70
2023-05-20T17:01:19.450Z,13.70
2023-05-20T17:03:52.366Z,13.70
2023-05-20T17:06:28.196Z,13.70
2023-05-20T17:09:01.499Z,13.70
2023-05-20T17:11:34.388Z,13.70
2023-05-20T17:14:07.131Z,13.70
2023-05-20T17:16:40.347Z,13.70
2023-05-20T17:19:13.320Z,13.70
2023-05-20T17:21:46.402Z,13.60
2023-05-20T17:24:19.427Z,13.60
2023-05-20T17:26:52.599Z,13.60
2023-05-20T17:29:25.484Z,13.60
2023-05-20T17:31:58.834Z,13.60
2023-05-20T17:34:32.217Z,13.60
2023-05-20T17:37:04.873Z,13.60
2023-05-20T17:39:40.327Z,13.60
2023-05-20T17:42:16.824Z,13.60
2023-05-20T17:44:49.782Z,13.60
2023-05-20T17:47:22.966Z,13.70
2023-05-20T17:49:56.339Z,13.70
2023-05-20T17:52:29.324Z,13.70
2023-05-20T17:55:02.214Z,13.70
2023-05-20T17:57:35.153Z,13.70
2023-05-20T18:00:08.446Z,13.70
2023-05-20T18:02:42.987Z,13.70
2023-05-20T18:05:16.082Z,13.70
2023-05-20T18:07:48.985Z,13.70
2023-05-20T18:10:27.101Z,13.70
2023-05-20T18:13:04.076Z,13.70
2023-05-20T18:15:37.066Z,13.70
2023-05-20T18:18:10.610Z,13.70
2023-05-20T18:20:43.464Z,13.70
2023-05-20T18:23:16.522Z,13.70
2023-05-20T18:25:50.042Z,13.70
2023-05-20T18:28:23.198Z,13.70
2023-05-20T18:30:57.479Z,13.80
2023-05-20T18:33:30.406Z,13.80
2023-05-20T18:36:03.410Z,13.80
2023-05-20T18:38:37.080Z,13.80
2023-05-20T18:41:10.378Z,13.80
2023-05-20T18:43:44.843Z,13.80
2023-05-20T18:46:17.883Z,13.80
2023-05-20T18:48:50.855Z,13.80
2023-05-20T18:51:23.791Z,13.80
2023-05-20T18:53:56.644Z,13.80
2023-05-20T18:56:29.597Z,13.80
2023-05-20T18:59:02.763Z,13.80
2023-05-20T19:01:41.389Z,13.80
2023-05-20T19:04:14.201Z,13.70
2023-05-20T19:06:47.236Z,13.70
2023-05-20T19:09:20.085Z,13.70
2023-05-20T19:11:54.228Z,13.70
2023-05-20T19:14:31.419Z,13.70
2023-05-20T19:17:05.108Z,13.70
2023-05-20T19:19:38.231Z,13.80
2023-05-20T19:22:13.830Z,13.80
2023-05-20T19:24:46.826Z,13.80
2023-05-20T19:27:19.924Z,13.80
2023-05-20T19:29:52.935Z,13.80
2023-05-20T19:32:26.028Z,13.80
2023-05-20T19:34:58.671Z,13.80
2023-05-20T19:37:32.249Z,13.80
2023-05-20T19:40:11.663Z,13.80
2023-05-20T19:42:44.727Z,13.80
2023-05-20T19:45:18.009Z,13.80
2023-05-20T19:47:50.751Z,13.80
2023-05-20T19:50:23.881Z,13.80
2023-05-20T19:52:56.726Z,13.80
2023-05-20T19:55:33.864Z,13.80
2023-05-20T19:58:06.989Z,13.80
2023-05-20T20:00:40.035Z,13.80
2023-05-20T20:03:13.288Z,13.80
2023-05-20T20:05:51.846Z,13.80
2023-05-20T20:08:24.772Z,13.80
2023-05-20T20:10:58.018Z,13.80
2023-05-20T20:13:31.035Z,13.80
2023-05-20T20:16:07.950Z,13.80
2023-05-20T20:18:40.902Z,13.80
2023-05-20T20:21:13.673Z,13.80
2023-05-20T20:23:46.600Z,13.90
2023-05-20T20:26:19.458Z,13.90
2023-05-20T20:28:52.267Z,13.90
2023-05-20T20:31:25.390Z,13.90
2023-05-20T20:33:59.379Z,13.90
2023-05-20T20:36:33.737Z,14.00
2023-05-20T20:39:07.660Z,14.00
2023-05-20T20:41:40.670Z,14.10
2023-05-20T20:44:15.168Z,14.10
2023-05-20T20:46:48.625Z,14.20
2023-05-20T20:49:22.556Z,14.20
2023-05-20T20:51:56.175Z,14.30
2023-05-20T20:54:31.641Z,14.30
2023-05-20T20:57:04.832Z,14.30
2023-05-20T20:59:37.658Z,14.40
2023-05-20T21:02:10.975Z,14.40
2023-05-20T21:04:44.695Z,14.50
2023-05-20T21:07:18.782Z,14.60
2023-05-20T21:09:52.815Z,14.60
2023-05-20T21:12:25.744Z,14.60
2023-05-20T21:14:59.295Z,14.60
2023-05-20T21:17:32.653Z,14.60
2023-05-20T21:20:20.186Z,14.60
2023-05-20T21:22:51.676Z,14.60
2023-05-20T21:25:24.571Z,14.50
2023-05-20T21:27:57.464Z,14.60
2023-05-20T21:30:49.010Z,14.60
2023-05-20T21:33:22.532Z,14.60
2023-05-20T21:35:55.930Z,14.70
2023-05-20T21:38:29.109Z,14.70
2023-05-20T21:41:03.098Z,14.70
2023-05-20T21:43:36.167Z,14.70
2023-05-20T21:46:09.735Z,14.70
2023-05-20T21:48:42.664Z,14.70
2023-05-20T21:51:15.512Z,14.80
2023-05-20T21:53:48.339Z,14.80
2023-05-20T21:56:21.205Z,14.80
2023-05-20T21:58:54.047Z,14.80
2023-05-20T22:01:27.029Z,14.90
2023-05-20T22:07:15.011Z,14.90
2023-05-20T22:09:48.208Z,15.00
2023-05-20T22:12:22.376Z,15.00
2023-05-20T22:14:55.383Z,15.00
2023-05-20T22:17:28.802Z,15.00
2023-05-20T22:20:02.034Z,15.10
2023-05-20T22:22:36.148Z,15.10
2023-05-20T22:25:09.715Z,15.20
2023-05-20T22:27:43.728Z,15.20
2023-05-20T22:30:17.038Z,15.30
2023-05-20T22:32:50.201Z,15.40
2023-05-20T22:35:24.821Z,15.50
2023-05-20T22:37:59.119Z,15.50
2023-05-20T22:40:32.316Z,15.60
2023-05-20T22:43:05.372Z,15.60
2023-05-20T22:45:38.516Z,15.70
2023-05-20T22:48:11.725Z,15.80
2023-05-20T22:50:44.633Z,15.80
2023-05-20T22:53:17.760Z,15.80
2023-05-20T22:55:51.028Z,15.80
2023-05-20T22:59:50.834Z,15.70
2023-05-20T23:01:30.197Z,15.70
2023-05-20T23:04:03.114Z,15.70
2023-05-20T23:06:37.314Z,15.70
2023-05-20T23:09:10.493Z,15.70
2023-05-20T23:11:43.223Z,15.70
2023-05-20T23:14:16.115Z,15.80
2023-05-20T23:16:48.956Z,15.80
2023-05-20T23:19:21.871Z,15.90
2023-05-20T23:21:54.785Z,15.90
2023-05-20T23:24:28.027Z,16.00
2023-05-20T23:27:01.146Z,16.00
2023-05-20T23:29:33.951Z,16.10
2023-05-20T23:32:07.148Z,16.10
2023-05-20T23:34:40.115Z,16.10
2023-05-20T23:37:13.034Z,16.10
2023-05-20T23:39:46.574Z,16.10
2023-05-20T23:42:19.408Z,16.10
2023-05-20T23:44:52.395Z,16.10
2023-05-20T23:47:26.894Z,16.00
2023-05-20T23:50:00.193Z,15.90
2023-05-20T23:52:33.017Z,15.90
2023-05-20T23:55:06.052Z,15.90
2023-05-20T23:57:38.962Z,15.90
